createdAt,value
2019-03-09T00:01:25.983Z,99.24
2019-03-09T00:04:31.280Z,102.18
2019-03-09T00:07:36.631Z,103.93
2019-03-09T00:10:41.922Z,103.88
2019-03-09T00:13:47.216Z,99.90
2019-03-09T00:16:52.491Z,98.44
2019-03-09T00:19:58.683Z,97.18
2019-03-09T00:23:23.527Z,96.72
2019-03-09T00:26:46.892Z,94.98
2019-03-09T00:30:00.452Z,93.56
2019-03-09T00:33:05.832Z,92.31
2019-03-09T00:36:11.172Z,92.90
2019-03-09T00:39:16.487Z,93.32
2019-03-09T00:42:21.872Z,92.00
2019-03-09T00:45:27.368Z,91.98
2019-03-09T00:48:32.628Z,92.50
2019-03-09T00:51:37.851Z,92.19
2019-03-09T00:54:43.175Z,93.50
2019-03-09T00:57:48.498Z,94.15
2019-03-09T01:00:53.733Z,94.45
2019-03-09T01:03:59.087Z,93.85
2019-03-09T01:07:04.397Z,94.89
2019-03-09T01:10:12.879Z,95.57
2019-03-09T01:13:18.227Z,96.90
2019-03-09T01:16:23.524Z,97.04
2019-03-09T01:19:29.750Z,97.26
2019-03-09T01:22:35.015Z,97.47
2019-03-09T01:25:42.848Z,96.21
2019-03-09T01:28:48.104Z,95.52
2019-03-09T01:31:53.392Z,96.21
2019-03-09T01:34:58.795Z,96.41
2019-03-09T01:38:04.072Z,96.08
2019-03-09T01:41:09.433Z,95.64
2019-03-09T01:44:14.713Z,95.97
2019-03-09T01:47:19.998Z,96.03
2019-03-09T01:50:25.372Z,97.31
2019-03-09T01:53:36.628Z,97.05
2019-03-09T01:56:37.510Z,97.14
2019-03-09T01:59:42.741Z,97.93
2019-03-09T02:02:48.010Z,98.70
2019-03-09T02:05:53.250Z,99.48
2019-03-09T02:08:58.506Z,100.62
2019-03-09T02:12:03.723Z,100.81
2019-03-09T02:15:09.245Z,100.60
2019-03-09T02:18:14.540Z,100.50
2019-03-09T02:21:21.431Z,101.00
2019-03-09T02:24:29.013Z,101.40
2019-03-09T02:27:34.266Z,101.17
2019-03-09T02:30:39.555Z,101.27
2019-03-09T02:33:44.755Z,101.79
2019-03-09T02:36:50.026Z,102.32
2019-03-09T02:40:02.117Z,102.31
2019-03-09T02:43:08.607Z,102.57
2019-03-09T02:46:13.881Z,102.11
2019-03-09T02:49:19.097Z,102.27
2019-03-09T02:52:24.481Z,103.26
2019-03-09T02:55:29.773Z,103.73
2019-03-09T02:58:35.062Z,104.28
2019-03-09T03:02:08.031Z,104.54
2019-03-09T03:05:13.616Z,104.47
2019-03-09T03:08:18.998Z,105.08
2019-03-09T03:11:24.305Z,104.99
2019-03-09T03:14:29.671Z,105.12
2019-03-09T03:17:34.978Z,104.87
2019-03-09T03:20:40.287Z,104.67
2019-03-09T03:23:45.568Z,105.16
2019-03-09T03:26:50.842Z,105.97
2019-03-09T03:29:56.147Z,106.21
2019-03-09T03:33:01.487Z,106.54
2019-03-09T03:36:06.687Z,106.05
2019-03-09T03:39:13.067Z,107.10
2019-03-09T03:42:20.578Z,107.06
2019-03-09T03:45:25.900Z,106.62
2019-03-09T03:48:33.890Z,107.06
2019-03-09T03:51:39.137Z,107.84
2019-03-09T03:54:44.452Z,107.99
2019-03-09T03:57:49.676Z,108.10
2019-03-09T04:00:54.934Z,108.52
2019-03-09T04:04:00.322Z,108.72
2019-03-09T04:07:06.024Z,109.14
2019-03-09T04:10:11.642Z,109.28
2019-03-09T04:13:17.053Z,109.35
2019-03-09T04:16:22.345Z,109.63
2019-03-09T04:19:27.606Z,110.14
2019-03-09T04:22:33.035Z,110.45
2019-03-09T04:25:38.420Z,110.30
2019-03-09T04:28:44.812Z,110.42
2019-03-09T04:31:50.111Z,110.49
2019-03-09T04:34:55.426Z,110.79
2019-03-09T04:38:00.737Z,110.67
2019-03-09T04:41:06.032Z,110.69
2019-03-09T04:44:11.335Z,111.01
2019-03-09T04:47:16.651Z,111.41
2019-03-09T04:50:21.881Z,112.11
2019-03-09T04:53:27.311Z,111.87
2019-03-09T04:56:32.569Z,112.50
2019-03-09T04:59:37.860Z,112.85
2019-03-09T05:02:43.231Z,113.07
2019-03-09T05:05:48.547Z,113.11
2019-03-09T05:09:10.709Z,113.11
2019-03-09T05:12:15.940Z,113.17
2019-03-09T05:15:21.284Z,113.24
2019-03-09T05:18:26.531Z,113.44
2019-03-09T05:21:31.814Z,113.75
2019-03-09T05:24:37.030Z,113.88
2019-03-09T05:27:42.272Z,118.33
2019-03-09T05:30:47.629Z,115.75
2019-03-09T05:33:52.895Z,114.80
2019-03-09T05:36:58.196Z,113.89
2019-03-09T05:40:03.557Z,112.27
2019-03-09T05:43:08.769Z,111.50
2019-03-09T05:46:14.111Z,110.39
2019-03-09T05:49:19.374Z,109.78
2019-03-09T05:52:32.412Z,108.52
2019-03-09T05:55:37.871Z,108.12
2019-03-09T05:58:43.149Z,108.79
2019-03-09T06:01:48.430Z,108.30
2019-03-09T06:04:53.727Z,108.02
2019-03-09T06:07:59.076Z,106.71
2019-03-09T06:11:04.386Z,105.97
2019-03-09T06:14:09.700Z,105.45
2019-03-09T06:17:14.959Z,104.56
2019-03-09T06:20:20.274Z,104.64
2019-03-09T06:23:25.658Z,104.48
2019-03-09T06:26:31.937Z,104.39
2019-03-09T06:29:37.239Z,104.40
2019-03-09T06:33:34.880Z,105.06
2019-03-09T06:37:00.434Z,105.19
2019-03-09T06:40:06.087Z,104.14
2019-03-09T06:43:11.504Z,103.91
2019-03-09T06:46:16.890Z,102.81
2019-03-09T06:49:22.219Z,102.14
2019-03-09T06:52:27.548Z,99.92
2019-03-09T06:55:32.796Z,99.97
2019-03-09T06:58:38.186Z,100.23
2019-03-09T07:01:43.488Z,99.22
2019-03-09T07:04:51.025Z,100.49
2019-03-09T07:07:56.283Z,100.04
2019-03-09T07:11:01.626Z,99.08
2019-03-09T07:14:42.599Z,98.69
2019-03-09T07:17:48.685Z,99.07
2019-03-09T07:20:53.997Z,98.47
2019-03-09T07:23:59.379Z,98.53
2019-03-09T07:27:04.719Z,96.80
2019-03-09T07:30:17.359Z,97.07
2019-03-09T07:33:22.648Z,97.34
2019-03-09T07:36:27.923Z,97.75
2019-03-09T07:39:33.184Z,95.76
2019-03-09T07:42:38.414Z,96.21
2019-03-09T07:45:43.670Z,95.49
2019-03-09T07:48:48.943Z,94.96
2019-03-09T07:51:54.337Z,94.94
2019-03-09T07:54:59.668Z,94.60
2019-03-09T07:58:06.494Z,94.67
2019-03-09T08:01:11.733Z,93.38
2019-03-09T08:04:17.060Z,95.05
2019-03-09T08:07:22.425Z,94.42
2019-03-09T08:10:27.952Z,93.09
2019-03-09T08:13:33.221Z,92.34
2019-03-09T08:16:38.639Z,92.48
2019-03-09T08:19:43.925Z,92.95
2019-03-09T08:22:50.716Z,91.73
2019-03-09T08:25:57.271Z,90.42
2019-03-09T08:29:02.674Z,90.58
2019-03-09T08:32:08.009Z,90.49
2019-03-09T08:35:13.980Z,90.02
2019-03-09T08:38:19.352Z,89.45
2019-03-09T08:41:24.635Z,90.73
2019-03-09T08:44:29.945Z,89.36
2019-03-09T08:47:35.638Z,88.46
2019-03-09T08:50:41.051Z,87.81
2019-03-09T08:53:46.422Z,87.46
2019-03-09T08:56:51.714Z,85.54
2019-03-09T08:59:57.022Z,84.98
2019-03-09T09:03:02.354Z,86.02
2019-03-09T09:06:07.622Z,85.85
2019-03-09T09:09:12.895Z,86.14
2019-03-09T09:12:18.119Z,84.29
2019-03-09T09:15:23.476Z,83.77
2019-03-09T09:18:28.709Z,84.11
2019-03-09T09:21:34.052Z,83.69
2019-03-09T09:24:39.345Z,84.59
2019-03-09T09:27:44.616Z,83.78
2019-03-09T09:30:50.533Z,83.59
2019-03-09T09:33:55.759Z,82.25
2019-03-09T09:37:02.354Z,81.36
2019-03-09T09:40:09.865Z,82.64
2019-03-09T09:43:15.147Z,81.51
2019-03-09T09:46:20.374Z,83.57
2019-03-09T09:49:25.680Z,82.11
2019-03-09T09:52:31.101Z,79.96
2019-03-09T09:55:36.425Z,80.35
2019-03-09T09:58:41.637Z,81.12
2019-03-09T10:01:46.960Z,81.25
2019-03-09T10:04:52.244Z,79.77
2019-03-09T10:07:57.594Z,78.90
2019-03-09T10:11:02.868Z,82.44
2019-03-09T10:14:08.200Z,80.45
2019-03-09T10:17:13.418Z,78.45
2019-03-09T10:20:18.755Z,80.39
2019-03-09T10:23:24.104Z,80.23
2019-03-09T10:26:29.483Z,80.99
2019-03-09T10:29:34.705Z,79.05
2019-03-09T10:32:41.517Z,80.38
2019-03-09T10:35:48.252Z,79.34
2019-03-09T10:38:53.514Z,78.06
2019-03-09T10:41:58.799Z,77.23
2019-03-09T10:45:04.968Z,78.11
2019-03-09T10:48:10.419Z,78.51
2019-03-09T10:51:15.823Z,78.07
2019-03-09T10:54:21.100Z,78.33
2019-03-09T10:57:26.467Z,75.67
2019-03-09T11:00:33.033Z,77.93
2019-03-09T11:03:38.314Z,76.07
2019-03-09T11:06:43.557Z,77.22
2019-03-09T11:09:48.815Z,78.75
2019-03-09T11:12:54.185Z,76.98
2019-03-09T11:15:59.437Z,75.43
2019-03-09T11:19:04.677Z,75.88
2019-03-09T11:22:10.078Z,76.73
2019-03-09T11:25:15.527Z,76.18
2019-03-09T11:28:20.802Z,76.01
2019-03-09T11:31:26.037Z,75.74
2019-03-09T11:34:31.374Z,74.46
2019-03-09T11:37:36.653Z,75.98
2019-03-09T11:40:43.084Z,76.13
2019-03-09T11:43:48.414Z,75.43
2019-03-09T11:46:53.730Z,75.49
2019-03-09T11:49:59.008Z,73.87
2019-03-09T11:53:04.269Z,73.59
2019-03-09T11:56:09.620Z,73.11
2019-03-09T11:59:14.962Z,71.55
2019-03-09T12:02:20.426Z,72.47
2019-03-09T12:05:25.759Z,70.11
2019-03-09T12:08:31.193Z,71.75
2019-03-09T12:11:36.638Z,72.14
2019-03-09T12:14:41.934Z,71.92
2019-03-09T12:17:47.262Z,71.92
2019-03-09T12:20:52.574Z,71.15
2019-03-09T12:23:57.938Z,71.71
2019-03-09T12:27:03.273Z,71.44
2019-03-09T12:30:10.214Z,70.73
2019-03-09T12:33:15.640Z,71.40
2019-03-09T12:36:21.042Z,70.15
2019-03-09T12:39:26.463Z,70.10
2019-03-09T12:42:31.770Z,67.45
2019-03-09T12:45:37.234Z,68.16
2019-03-09T12:48:42.584Z,66.51
2019-03-09T12:51:47.861Z,68.31
2019-03-09T12:54:53.238Z,70.85
2019-03-09T12:57:58.504Z,70.34
2019-03-09T13:01:03.859Z,70.73
2019-03-09T13:04:12.580Z,72.86
2019-03-09T13:07:20.206Z,73.21
2019-03-09T13:10:25.642Z,72.50
2019-03-09T13:13:30.953Z,71.23
2019-03-09T13:16:36.267Z,71.93
2019-03-09T13:19:42.086Z,73.74
2019-03-09T13:22:48.913Z,69.24
2019-03-09T13:25:55.442Z,70.28
2019-03-09T13:29:00.698Z,68.98
2019-03-09T13:32:06.036Z,70.70
2019-03-09T13:35:11.485Z,70.57
2019-03-09T13:38:16.989Z,72.87
2019-03-09T13:41:22.352Z,73.20
2019-03-09T13:44:27.579Z,73.81
2019-03-09T13:47:32.958Z,74.83
2019-03-09T13:50:38.208Z,76.78
2019-03-09T13:53:43.517Z,76.49
2019-03-09T13:56:48.842Z,77.62
2019-03-09T13:59:54.219Z,81.02
2019-03-09T14:02:59.512Z,82.61
2019-03-09T14:06:04.787Z,84.31
2019-03-09T14:09:10.423Z,89.02
2019-03-09T14:12:15.867Z,88.10
2019-03-09T14:15:21.156Z,87.52
2019-03-09T14:18:26.388Z,89.09
2019-03-09T14:21:31.726Z,87.83
2019-03-09T14:24:37.869Z,88.58
2019-03-09T14:27:43.153Z,87.32
2019-03-09T14:30:49.389Z,88.18
2019-03-09T14:33:54.844Z,88.58
2019-03-09T14:37:00.195Z,88.36
2019-03-09T14:40:06.088Z,91.32
2019-03-09T14:43:11.478Z,92.84
2019-03-09T14:46:16.741Z,94.42
2019-03-09T14:49:22.061Z,96.88
2019-03-09T14:52:27.358Z,100.52
2019-03-09T14:55:32.752Z,102.95
2019-03-09T14:58:38.071Z,105.85
2019-03-09T15:01:43.302Z,103.45
2019-03-09T15:04:48.671Z,103.04
2019-03-09T15:07:54.015Z,100.47
2019-03-09T15:10:59.442Z,99.75
2019-03-09T15:14:04.742Z,100.04
2019-03-09T15:17:10.009Z,98.96
2019-03-09T15:20:15.382Z,99.94
2019-03-09T15:23:20.754Z,100.27
2019-03-09T15:26:26.072Z,99.72
2019-03-09T15:29:32.767Z,100.75
2019-03-09T15:32:38.368Z,102.60
2019-03-09T15:35:45.008Z,102.65
2019-03-09T15:38:51.903Z,102.74
2019-03-09T15:41:57.168Z,103.97
2019-03-09T15:45:02.518Z,105.45
2019-03-09T15:48:07.871Z,105.52
2019-03-09T15:51:13.236Z,102.65
2019-03-09T15:54:18.481Z,103.46
2019-03-09T15:57:23.797Z,103.30
2019-03-09T16:00:29.218Z,102.60
2019-03-09T16:03:34.501Z,103.37
2019-03-09T16:06:39.761Z,104.03
2019-03-09T16:09:45.041Z,103.39
2019-03-09T16:12:51.463Z,101.85
2019-03-09T16:15:56.769Z,106.84
2019-03-09T16:19:02.068Z,108.36
2019-03-09T16:22:08.493Z,107.12
2019-03-09T16:25:13.916Z,104.39
2019-03-09T16:28:19.247Z,104.68
2019-03-09T16:31:24.566Z,104.73
2019-03-09T16:34:29.923Z,103.21
2019-03-09T16:37:35.212Z,99.64
2019-03-09T16:40:41.011Z,99.45
2019-03-09T16:43:46.396Z,101.07
2019-03-09T16:46:51.638Z,100.10
2019-03-09T16:49:56.927Z,99.68
2019-03-09T16:53:03.162Z,98.50
2019-03-09T16:56:08.662Z,98.02
2019-03-09T16:59:13.916Z,99.56
2019-03-09T17:02:27.657Z,100.15
2019-03-09T17:05:26.267Z,96.76
2019-03-09T17:08:31.674Z,98.48
2019-03-09T17:11:36.950Z,97.62
2019-03-09T17:14:42.228Z,96.24
2019-03-09T17:17:47.589Z,97.41
2019-03-09T17:20:52.905Z,97.09
2019-03-09T17:23:58.161Z,95.11
2019-03-09T17:27:03.458Z,97.87
2019-03-09T17:30:10.900Z,99.40
2019-03-09T17:33:16.268Z,98.60
2019-03-09T17:36:21.712Z,97.28
2019-03-09T17:39:28.516Z,97.78
2019-03-09T17:42:33.848Z,96.04
2019-03-09T17:45:39.265Z,93.78
2019-03-09T17:48:44.542Z,93.52
2019-03-09T17:51:49.869Z,91.77
2019-03-09T17:54:55.229Z,91.31
2019-03-09T17:58:00.553Z,90.62
2019-03-09T18:01:05.822Z,88.07
2019-03-09T18:04:11.082Z,89.28
2019-03-09T18:07:16.408Z,87.08
2019-03-09T18:10:29.101Z,88.17
2019-03-09T18:13:34.614Z,87.75
2019-03-09T18:16:40.140Z,90.04
2019-03-09T18:19:47.367Z,87.23
2019-03-09T18:22:52.690Z,89.48
2019-03-09T18:25:57.986Z,88.71
2019-03-09T18:29:03.209Z,88.18
2019-03-09T18:32:08.526Z,86.98
2019-03-09T18:35:13.932Z,83.61
2019-03-09T18:38:19.268Z,82.90
2019-03-09T18:41:24.627Z,83.79
2019-03-09T18:44:30.092Z,84.43
2019-03-09T18:47:35.458Z,84.92
2019-03-09T18:50:40.716Z,83.52
2019-03-09T18:53:46.010Z,85.46
2019-03-09T18:56:51.291Z,85.25
2019-03-09T18:59:56.591Z,86.62
2019-03-09T19:03:01.887Z,86.94
2019-03-09T19:06:07.261Z,88.61
2019-03-09T19:09:12.823Z,89.42
2019-03-09T19:12:18.102Z,91.17
2019-03-09T19:15:23.492Z,90.22
2019-03-09T19:18:28.834Z,89.97
2019-03-09T19:21:34.156Z,89.78
2019-03-09T19:24:39.466Z,89.99
2019-03-09T19:27:44.868Z,90.13
2019-03-09T19:30:52.412Z,90.19
2019-03-09T19:33:57.690Z,91.39
2019-03-09T19:37:03.046Z,91.87
2019-03-09T19:40:10.028Z,92.51
2019-03-09T19:43:15.433Z,92.83
2019-03-09T19:46:20.762Z,92.19
2019-03-09T19:49:37.670Z,93.10
2019-03-09T19:52:43.000Z,92.33
2019-03-09T19:55:48.398Z,91.39
2019-03-09T19:58:53.711Z,92.93
2019-03-09T20:01:59.081Z,93.98
2019-03-09T20:05:04.509Z,92.80
2019-03-09T20:08:09.811Z,93.69
2019-03-09T20:11:15.118Z,93.54
2019-03-09T20:14:20.360Z,92.13
2019-03-09T20:17:25.693Z,91.49
2019-03-09T20:20:31.038Z,91.47
2019-03-09T20:23:36.379Z,89.46
2019-03-09T20:26:41.673Z,86.67
2019-03-09T20:29:46.886Z,87.83
2019-03-09T20:32:52.145Z,90.56
2019-03-09T20:35:57.438Z,92.21
2019-03-09T20:39:02.821Z,94.25
2019-03-09T20:42:09.780Z,95.07
2019-03-09T20:45:16.872Z,95.12
2019-03-09T20:48:43.976Z,95.28
2019-03-09T20:51:49.376Z,95.96
2019-03-09T20:54:56.292Z,95.31
2019-03-09T20:58:01.576Z,94.68
2019-03-09T21:01:06.907Z,96.00
2019-03-09T21:04:12.205Z,94.99
2019-03-09T21:07:17.438Z,94.65
2019-03-09T21:10:22.927Z,95.01
2019-03-09T21:13:28.218Z,95.99
2019-03-09T21:16:33.542Z,95.27
2019-03-09T21:19:38.927Z,95.89
2019-03-09T21:22:44.357Z,95.42
2019-03-09T21:25:49.727Z,95.42
2019-03-09T21:28:55.030Z,95.09
2019-03-09T21:32:00.375Z,96.61
2019-03-09T21:35:06.041Z,96.27
2019-03-09T21:38:11.368Z,96.36
2019-03-09T21:41:19.716Z,95.89
2019-03-09T21:44:25.022Z,95.83
2019-03-09T21:47:30.306Z,95.70
2019-03-09T21:50:35.600Z,96.70
2019-03-09T21:53:40.881Z,96.68
2019-03-09T21:56:46.096Z,97.10
2019-03-09T21:59:51.389Z,96.92
2019-03-09T22:02:56.652Z,97.63
2019-03-09T22:06:06.036Z,97.74
2019-03-09T22:09:08.932Z,98.41
2019-03-09T22:12:14.327Z,98.16
2019-03-09T22:15:19.620Z,97.92
2019-03-09T22:18:24.897Z,98.48
2019-03-09T22:21:30.190Z,97.79
2019-03-09T22:24:35.480Z,97.88
2019-03-09T22:27:40.805Z,98.56
2019-03-09T22:30:46.088Z,99.21
2019-03-09T22:33:51.351Z,98.95
2019-03-09T22:36:56.694Z,98.33
2019-03-09T22:40:02.036Z,98.38
2019-03-09T22:43:08.288Z,98.42
2019-03-09T22:46:13.678Z,98.56
2019-03-09T22:49:19.035Z,98.56
2019-03-09T22:52:28.400Z,98.79
2019-03-09T22:55:33.656Z,98.54
2019-03-09T22:58:38.910Z,98.02
2019-03-09T23:01:44.174Z,98.84
2019-03-09T23:04:49.646Z,98.67
2019-03-09T23:07:55.003Z,100.23
2019-03-09T23:11:00.325Z,99.76
2019-03-09T23:14:05.591Z,100.28
2019-03-09T23:17:10.882Z,101.69
2019-03-09T23:20:16.509Z,102.18
2019-03-09T23:23:21.910Z,102.94
2019-03-09T23:26:27.207Z,102.87
2019-03-09T23:29:32.447Z,103.33
2019-03-09T23:32:37.711Z,102.81
2019-03-09T23:35:43.020Z,102.59
2019-03-09T23:38:48.245Z,102.99
2019-03-09T23:41:53.567Z,103.05
2019-03-09T23:44:58.847Z,103.29
2019-03-09T23:48:04.105Z,102.99
2019-03-09T23:51:09.497Z,103.35
2019-03-09T23:54:14.807Z,103.12
2019-03-09T23:57:21.688Z,103.52
